createdAt,value
2018-05-25T00:00:13.026Z,0.00
2018-05-25T00:01:12.881Z,0.00
2018-05-25T00:02:12.863Z,0.00
2018-05-25T00:03:12.758Z,0.00
2018-05-25T00:05:54.794Z,0.00
2018-05-25T00:06:56.452Z,0.00
2018-05-25T00:07:54.661Z,0.00
2018-05-25T00:08:56.506Z,0.00
2018-05-25T00:09:54.478Z,0.00
2018-05-25T00:10:56.695Z,0.00
2018-05-25T00:11:54.341Z,0.00
2018-05-25T00:12:56.867Z,0.00
2018-05-25T00:13:54.178Z,0.00
2018-05-25T00:16:40.293Z,0.00
2018-05-25T00:17:40.312Z,0.00
2018-05-25T00:18:40.144Z,0.00
2018-05-25T00:19:40.093Z,0.00
2018-05-25T00:20:40.001Z,0.00
2018-05-25T00:21:39.997Z,0.00
2018-05-25T00:22:39.845Z,0.00
2018-05-25T00:23:39.844Z,0.00
2018-05-25T00:24:39.720Z,0.00
2018-05-25T00:25:39.713Z,0.00
2018-05-25T00:26:39.513Z,0.00
2018-05-25T00:27:39.528Z,0.00
2018-05-25T00:28:39.376Z,0.00
2018-05-25T00:29:39.341Z,0.00
2018-05-25T00:30:39.219Z,0.00
2018-05-25T00:33:21.326Z,0.00
2018-05-25T00:34:21.351Z,0.00
2018-05-25T00:35:21.160Z,0.00
2018-05-25T00:36:21.151Z,0.00
2018-05-25T00:37:20.980Z,0.00
2018-05-25T00:38:20.969Z,0.00
2018-05-25T00:39:20.869Z,0.00
2018-05-25T00:40:20.888Z,0.00
2018-05-25T00:41:20.674Z,0.00
2018-05-25T00:44:02.805Z,0.00
2018-05-25T00:45:02.803Z,0.00
2018-05-25T00:46:02.641Z,0.00
2018-05-25T00:47:02.697Z,0.00
2018-05-25T00:48:02.491Z,0.00
2018-05-25T00:49:02.511Z,0.00
2018-05-25T00:50:02.360Z,0.00
2018-05-25T00:52:44.313Z,0.00
2018-05-25T00:55:26.319Z,0.00
2018-05-25T00:56:26.311Z,0.00
2018-05-25T00:57:26.142Z,0.00
2018-05-25T00:58:26.121Z,0.00
2018-05-25T00:59:25.988Z,0.00
2018-05-25T01:00:26.061Z,0.00
2018-05-25T01:01:25.839Z,0.00
2018-05-25T01:04:07.800Z,0.00
2018-05-25T01:05:07.859Z,0.00
2018-05-25T01:06:07.648Z,0.00
2018-05-25T01:07:07.629Z,0.00
2018-05-25T01:08:07.494Z,0.00
2018-05-25T01:09:07.441Z,0.00
2018-05-25T01:10:07.382Z,0.00
2018-05-25T01:11:07.358Z,0.00
2018-05-25T01:12:07.217Z,0.00
2018-05-25T01:13:07.167Z,0.00
2018-05-25T01:14:07.028Z,0.00
2018-05-25T01:15:06.984Z,0.00
2018-05-25T01:16:06.892Z,0.00
2018-05-25T01:17:06.893Z,0.00
2018-05-25T01:18:06.707Z,0.00
2018-05-25T01:19:06.691Z,0.00
2018-05-25T01:20:06.575Z,0.00
2018-05-25T01:21:06.531Z,0.00
2018-05-25T01:22:06.398Z,0.00
2018-05-25T01:23:06.415Z,0.00
2018-05-25T01:24:06.249Z,0.00
2018-05-25T01:25:06.210Z,0.00
2018-05-25T01:26:06.117Z,0.00
2018-05-25T01:27:06.123Z,0.00
2018-05-25T01:28:05.940Z,0.00
2018-05-25T01:29:05.928Z,0.00
2018-05-25T01:30:05.766Z,0.00
2018-05-25T01:32:47.830Z,0.00
2018-05-25T01:33:47.852Z,0.00
2018-05-25T01:34:47.656Z,0.00
2018-05-25T01:35:47.655Z,0.00
2018-05-25T01:36:47.535Z,0.00
2018-05-25T01:37:47.463Z,0.00
2018-05-25T01:38:47.335Z,0.00
2018-05-25T01:39:47.367Z,0.00
2018-05-25T01:40:47.193Z,0.00
2018-05-25T01:41:47.212Z,0.00
2018-05-25T01:42:47.031Z,0.00
2018-05-25T01:45:29.314Z,0.00
2018-05-25T01:46:29.327Z,0.00
2018-05-25T01:47:29.157Z,0.00
2018-05-25T01:48:29.210Z,0.00
2018-05-25T01:49:29.003Z,0.00
2018-05-25T01:50:29.015Z,0.00
2018-05-25T01:51:28.857Z,0.00
2018-05-25T01:52:28.855Z,0.00
2018-05-25T01:53:28.686Z,0.00
2018-05-25T01:54:28.739Z,0.00
2018-05-25T01:55:28.524Z,0.00
2018-05-25T01:56:28.570Z,0.00
2018-05-25T01:57:28.490Z,0.00
2018-05-25T01:58:28.361Z,0.00
2018-05-25T01:59:28.217Z,0.00
2018-05-25T02:00:28.263Z,0.00
2018-05-25T02:01:28.050Z,0.00
2018-05-25T02:02:28.110Z,0.00
2018-05-25T02:07:57.348Z,0.00
2018-05-25T02:08:57.291Z,0.00
2018-05-25T02:09:57.166Z,0.00
2018-05-25T02:10:57.227Z,0.00
2018-05-25T02:11:57.012Z,0.00
2018-05-25T02:12:57.041Z,0.00
2018-05-25T02:13:56.855Z,0.00
2018-05-25T02:14:56.817Z,0.00
2018-05-25T02:15:56.698Z,0.00
2018-05-25T02:16:56.731Z,0.00
2018-05-25T02:17:57.344Z,0.00
2018-05-25T02:18:56.526Z,0.00
2018-05-25T02:19:56.386Z,0.00
2018-05-25T02:20:56.343Z,0.00
2018-05-25T02:21:56.227Z,0.00
2018-05-25T02:22:56.293Z,0.00
2018-05-25T02:23:56.061Z,0.00
2018-05-25T02:24:56.104Z,0.00
2018-05-25T02:25:56.022Z,0.00
2018-05-25T02:26:55.886Z,0.00
2018-05-25T02:27:55.746Z,0.00
2018-05-25T02:28:55.814Z,0.00
2018-05-25T02:29:55.606Z,0.00
2018-05-25T02:30:55.593Z,0.00
2018-05-25T02:31:55.436Z,0.00
2018-05-25T02:32:55.400Z,0.00
2018-05-25T02:33:55.299Z,0.00
2018-05-25T02:34:55.305Z,0.00
2018-05-25T02:36:55.046Z,0.00
2018-05-25T02:37:55.022Z,0.00
2018-05-25T02:38:55.060Z,0.00
2018-05-25T02:39:54.864Z,0.00
2018-05-25T02:40:54.735Z,0.00
2018-05-25T02:41:54.778Z,0.00
2018-05-25T02:42:54.582Z,0.00
2018-05-25T02:45:36.863Z,0.00
2018-05-25T02:46:36.861Z,0.00
2018-05-25T02:47:36.669Z,0.00
2018-05-25T02:48:36.699Z,0.00
2018-05-25T02:49:36.543Z,0.00
2018-05-25T02:50:36.472Z,0.00
2018-05-25T02:51:36.360Z,4.00
2018-05-25T02:52:36.391Z,4.00
2018-05-25T02:53:36.253Z,0.00
2018-05-25T02:54:36.199Z,0.00
2018-05-25T02:55:36.043Z,4.00
2018-05-25T02:56:35.998Z,4.00
2018-05-25T02:57:35.910Z,0.00
2018-05-25T02:58:35.944Z,4.00
2018-05-25T02:59:35.760Z,4.00
2018-05-25T03:00:35.762Z,4.00
2018-05-25T03:01:35.578Z,8.00
2018-05-25T03:02:35.538Z,8.00
2018-05-25T03:03:35.416Z,8.00
2018-05-25T03:04:36.406Z,8.00
2018-05-25T03:05:35.297Z,8.00
2018-05-25T03:06:35.252Z,16.00
2018-05-25T03:07:35.101Z,16.00
2018-05-25T03:08:35.053Z,16.00
2018-05-25T03:09:34.958Z,20.00
2018-05-25T03:10:35.008Z,24.00
2018-05-25T03:11:34.793Z,24.00
2018-05-25T03:12:34.780Z,24.00
2018-05-25T03:13:34.639Z,28.00
2018-05-25T03:14:34.582Z,36.00
2018-05-25T03:15:34.497Z,40.00
2018-05-25T03:16:34.492Z,40.00
2018-05-25T03:17:34.316Z,44.00
2018-05-25T03:18:34.306Z,52.00
2018-05-25T03:19:34.167Z,56.00
2018-05-25T03:20:34.150Z,60.00
2018-05-25T03:21:34.001Z,68.00
2018-05-25T03:22:34.024Z,72.00
2018-05-25T03:23:33.846Z,76.00
2018-05-25T03:24:33.830Z,84.00
2018-05-25T03:25:33.698Z,96.00
2018-05-25T03:26:33.675Z,100.00
2018-05-25T03:27:33.539Z,108.00
2018-05-25T03:28:33.559Z,120.00
2018-05-25T03:29:33.373Z,128.00
2018-05-25T03:30:33.358Z,136.00
2018-05-25T03:31:33.246Z,144.00
2018-05-25T03:34:15.348Z,176.00
2018-05-25T03:35:15.370Z,192.00
2018-05-25T03:36:15.211Z,200.00
2018-05-25T03:37:15.180Z,216.00
2018-05-25T03:38:15.024Z,224.00
2018-05-25T03:39:14.984Z,244.00
2018-05-25T03:40:14.875Z,260.00
2018-05-25T03:41:14.923Z,272.00
2018-05-25T03:42:14.711Z,292.00
2018-05-25T03:43:14.701Z,304.00
2018-05-25T03:44:14.555Z,316.00
2018-05-25T03:45:14.510Z,332.00
2018-05-25T03:46:14.436Z,348.00
2018-05-25T03:47:14.421Z,360.00
2018-05-25T03:48:14.239Z,376.00
2018-05-25T03:49:14.230Z,392.00
2018-05-25T03:50:14.101Z,412.00
2018-05-25T03:51:14.083Z,432.00
2018-05-25T03:52:13.941Z,444.00
2018-05-25T03:53:14.293Z,460.00
2018-05-25T03:54:14.482Z,484.00
2018-05-25T03:55:14.383Z,492.00
2018-05-25T03:56:13.612Z,516.00
2018-05-25T03:57:14.634Z,536.00
2018-05-25T03:58:13.467Z,556.00
2018-05-25T04:00:55.367Z,624.00
2018-05-25T04:01:55.421Z,644.00
2018-05-25T04:02:55.197Z,664.00
2018-05-25T04:03:55.224Z,688.00
2018-05-25T04:04:55.168Z,712.00
2018-05-25T04:05:55.000Z,732.00
2018-05-25T04:06:54.902Z,764.00
2018-05-25T04:07:55.868Z,800.00
2018-05-25T04:08:54.714Z,836.00
2018-05-25T04:09:54.724Z,880.00
2018-05-25T04:10:55.463Z,920.00
2018-05-25T04:11:54.524Z,972.00
2018-05-25T04:12:54.412Z,1024.00
2018-05-25T04:13:54.485Z,1088.00
2018-05-25T04:14:54.261Z,1152.00
2018-05-25T04:15:54.256Z,1216.00
2018-05-25T04:16:54.088Z,1296.00
2018-05-25T04:17:54.052Z,1360.00
2018-05-25T04:18:53.955Z,1444.00
2018-05-25T04:19:53.971Z,1548.00
2018-05-25T04:20:53.778Z,1652.00
2018-05-25T04:21:53.772Z,1752.00
2018-05-25T04:22:53.619Z,1836.00
2018-05-25T04:23:53.607Z,1932.00
2018-05-25T04:24:53.465Z,2032.00
2018-05-25T04:25:53.500Z,2108.00
2018-05-25T04:26:53.315Z,2196.00
2018-05-25T04:27:53.312Z,2320.00
2018-05-25T04:28:53.152Z,2372.00
2018-05-25T04:29:53.156Z,2448.00
2018-05-25T04:30:52.993Z,2504.00
2018-05-25T04:33:35.364Z,2612.00
2018-05-25T04:34:35.361Z,2656.00
2018-05-25T04:35:35.241Z,2676.00
2018-05-25T04:36:35.228Z,2732.00
2018-05-25T04:37:35.049Z,2808.00
2018-05-25T04:38:35.076Z,2900.00
2018-05-25T04:39:34.916Z,3056.00
2018-05-25T04:40:34.887Z,3224.00
2018-05-25T04:41:34.730Z,3456.00
2018-05-25T04:44:16.877Z,4120.00
2018-05-25T04:45:18.535Z,4360.00
2018-05-25T04:46:16.720Z,4540.00
2018-05-25T04:47:18.722Z,4696.00
2018-05-25T04:48:16.574Z,4828.00
2018-05-25T04:49:18.847Z,4932.00
2018-05-25T04:50:16.429Z,5112.00
2018-05-25T04:51:18.951Z,5200.00
2018-05-25T04:52:16.252Z,5276.00
2018-05-25T04:54:19.461Z,5460.00
2018-05-25T04:54:19.975Z,5568.00
2018-05-25T04:55:20.029Z,5688.00
2018-05-25T04:56:19.805Z,5860.00
2018-05-25T04:57:19.830Z,5988.00
2018-05-25T04:58:19.643Z,6016.00
2018-05-25T05:01:01.906Z,6124.00
2018-05-25T05:02:01.921Z,6156.00
2018-05-25T05:03:01.720Z,6268.00
2018-05-25T05:05:43.912Z,6440.00
2018-05-25T05:08:25.881Z,6280.00
2018-05-25T05:09:25.817Z,6096.00
2018-05-25T05:10:25.717Z,5828.00
2018-05-25T05:11:25.764Z,5504.00
2018-05-25T05:12:25.557Z,5288.00
2018-05-25T05:13:25.552Z,5112.00
2018-05-25T05:14:25.397Z,4968.00
2018-05-25T05:15:25.367Z,4876.00
2018-05-25T05:16:25.290Z,4784.00
2018-05-25T05:17:25.284Z,4732.00
2018-05-25T05:18:25.103Z,4696.00
2018-05-25T05:19:25.070Z,4704.00
2018-05-25T05:20:24.932Z,4708.00
2018-05-25T05:21:24.928Z,4772.00
2018-05-25T05:22:24.808Z,4824.00
2018-05-25T05:26:12.944Z,4968.00
2018-05-25T05:27:12.814Z,4992.00
2018-05-25T05:28:12.851Z,5008.00
2018-05-25T05:29:12.660Z,5072.00
2018-05-25T05:30:12.648Z,5028.00
2018-05-25T05:31:12.492Z,5140.00
2018-05-25T05:32:12.605Z,5132.00
2018-05-25T05:33:12.336Z,5208.00
2018-05-25T05:34:12.369Z,5280.00
2018-05-25T05:35:12.177Z,5388.00
2018-05-25T05:37:54.397Z,5544.00
2018-05-25T05:38:54.386Z,5600.00
2018-05-25T05:39:54.223Z,5564.00
2018-05-25T05:40:54.206Z,5580.00
2018-05-25T05:41:54.080Z,5656.00
2018-05-25T05:42:54.137Z,5640.00
2018-05-25T05:43:53.916Z,5596.00
2018-05-25T05:44:53.911Z,5644.00
2018-05-25T05:45:53.762Z,5712.00
2018-05-25T05:46:53.709Z,5828.00
2018-05-25T05:47:53.630Z,5908.00
2018-05-25T05:48:53.620Z,5980.00
2018-05-25T05:49:53.447Z,6100.00
2018-05-25T05:50:53.437Z,6132.00
2018-05-25T05:51:53.287Z,6120.00
2018-05-25T05:52:53.296Z,6076.00
2018-05-25T05:53:53.168Z,6044.00
2018-05-25T05:54:53.151Z,6016.00
2018-05-25T05:55:52.994Z,6008.00
2018-05-25T05:56:52.977Z,6208.00
2018-05-25T05:57:52.859Z,6184.00
2018-05-25T05:58:53.824Z,6300.00
2018-05-25T05:59:52.685Z,6324.00
2018-05-25T06:00:52.688Z,6508.00
2018-05-25T06:01:52.513Z,6596.00
2018-05-25T06:02:52.493Z,6580.00
2018-05-25T06:03:52.374Z,6656.00
2018-05-25T06:06:34.382Z,6868.00
2018-05-25T06:07:34.392Z,7000.00
2018-05-25T06:08:34.261Z,7132.00
2018-05-25T06:09:34.202Z,7272.00
2018-05-25T06:10:34.082Z,7420.00
2018-05-25T06:13:16.407Z,7844.00
2018-05-25T06:14:16.467Z,7808.00
2018-05-25T06:15:16.247Z,7896.00
2018-05-25T06:16:16.234Z,8096.00
2018-05-25T06:17:16.089Z,8408.00
2018-05-25T06:18:16.033Z,9204.00
2018-05-25T06:19:15.942Z,10108.00
2018-05-25T06:20:15.955Z,10820.00
2018-05-25T06:21:15.893Z,11140.00
2018-05-25T06:22:15.754Z,11496.00
2018-05-25T06:23:15.614Z,11568.00
2018-05-25T06:24:15.840Z,11584.00
2018-05-25T06:25:15.460Z,11580.00
2018-05-25T06:26:15.482Z,11828.00
2018-05-25T06:27:15.298Z,11812.00
2018-05-25T06:28:15.279Z,11920.00
2018-05-25T06:29:15.180Z,11776.00
2018-05-25T06:30:15.192Z,12056.00
2018-05-25T06:31:15.043Z,12212.00
2018-05-25T06:32:15.008Z,12444.00
2018-05-25T06:33:14.851Z,13412.00
2018-05-25T06:34:14.836Z,13960.00
2018-05-25T06:35:14.722Z,15092.00
2018-05-25T06:36:14.769Z,15296.00
2018-05-25T06:37:14.547Z,14836.00
2018-05-25T06:38:14.533Z,15648.00
2018-05-25T06:39:14.397Z,14560.00
2018-05-25T06:40:14.582Z,15616.00
2018-05-25T06:41:14.242Z,15872.00
2018-05-25T06:42:14.255Z,15232.00
2018-05-25T06:43:14.106Z,15936.00
2018-05-25T06:44:14.056Z,16064.00
2018-05-25T06:45:13.962Z,16352.00
2018-05-25T06:46:13.972Z,14904.00
2018-05-25T06:47:13.829Z,17472.00
2018-05-25T06:48:13.793Z,17952.00
2018-05-25T06:49:13.669Z,17760.00
2018-05-25T06:50:13.696Z,18208.00
2018-05-25T06:51:13.510Z,18304.00
2018-05-25T06:52:13.536Z,18464.00
2018-05-25T06:53:13.369Z,19168.00
2018-05-25T06:54:13.422Z,19328.00
2018-05-25T06:55:13.210Z,19584.00
2018-05-25T06:56:14.275Z,19904.00
2018-05-25T06:57:13.100Z,20128.00
2018-05-25T06:58:13.130Z,20416.00
2018-05-25T06:59:12.934Z,20768.00
2018-05-25T07:00:12.945Z,21152.00
2018-05-25T07:01:12.810Z,21408.00
2018-05-25T07:02:12.745Z,21504.00
2018-05-25T07:03:12.621Z,21856.00
2018-05-25T07:04:12.662Z,20608.00
2018-05-25T07:05:12.501Z,22624.00
2018-05-25T07:06:12.504Z,23392.00
2018-05-25T07:07:12.362Z,23424.00
2018-05-25T07:09:54.407Z,25056.00
2018-05-25T07:10:54.375Z,25248.00
2018-05-25T07:11:54.285Z,25760.00
2018-05-25T07:12:54.286Z,25952.00
2018-05-25T07:13:54.112Z,26496.00
2018-05-25T07:16:36.442Z,26720.00
2018-05-25T07:19:18.426Z,28672.00
2018-05-25T07:20:18.394Z,29184.00
2018-05-25T07:21:18.287Z,28576.00
2018-05-25T07:22:18.343Z,28288.00
2018-05-25T07:23:18.139Z,29472.00
2018-05-25T07:24:18.180Z,29984.00
2018-05-25T07:25:17.993Z,29408.00
2018-05-25T07:26:18.024Z,30720.00
2018-05-25T07:27:17.842Z,31744.00
2018-05-25T07:28:17.878Z,15588.00
2018-05-25T07:29:17.745Z,31872.00
2018-05-25T07:30:17.747Z,31840.00
2018-05-25T07:31:17.580Z,31040.00
2018-05-25T07:33:59.438Z,33408.00
2018-05-25T07:34:59.444Z,31744.00
2018-05-25T07:35:59.270Z,25536.00
2018-05-25T07:36:59.258Z,32736.00
2018-05-25T07:37:59.167Z,34944.00
2018-05-25T07:38:59.210Z,34624.00
2018-05-25T07:44:58.241Z,34048.00
2018-05-25T07:45:58.086Z,23392.00
2018-05-25T07:46:58.100Z,35712.00
2018-05-25T07:47:57.985Z,34848.00
2018-05-25T07:50:39.954Z,38912.00
2018-05-25T07:53:21.948Z,40576.00
2018-05-25T07:54:22.997Z,40864.00
2018-05-25T07:55:21.804Z,39808.00
2018-05-25T07:56:21.815Z,40864.00
2018-05-25T07:57:21.652Z,38816.00
2018-05-25T08:00:03.958Z,33952.00
2018-05-25T08:02:45.962Z,46112.00
2018-05-25T08:03:45.968Z,33376.00
2018-05-25T08:04:45.785Z,31264.00
2018-05-25T08:05:46.011Z,42560.00
2018-05-25T08:06:45.711Z,45120.00
2018-05-25T08:09:27.972Z,48320.00
2018-05-25T08:10:27.955Z,50048.00
2018-05-25T08:11:27.796Z,50400.00
2018-05-25T08:12:27.854Z,48160.00
2018-05-25T08:13:27.667Z,47168.00
2018-05-25T08:14:27.701Z,47424.00
2018-05-25T08:15:27.537Z,50624.00
2018-05-25T08:16:27.577Z,48800.00
2018-05-25T08:17:27.400Z,50400.00
2018-05-25T08:18:27.385Z,51968.00
2018-05-25T08:19:27.285Z,52928.00
2018-05-25T08:20:27.288Z,52928.00
2018-05-25T08:21:27.224Z,53536.00
2018-05-25T08:22:27.096Z,53120.00
2018-05-25T08:23:26.992Z,53536.00
2018-05-25T08:24:27.972Z,54048.00
2018-05-25T08:25:26.855Z,47360.00
2018-05-25T08:26:26.810Z,44768.00
2018-05-25T08:27:26.708Z,43840.00
2018-05-25T08:28:26.731Z,42848.00
2018-05-25T08:29:26.604Z,38688.00
2018-05-25T08:30:26.548Z,35616.00
2018-05-25T08:31:26.439Z,27072.00
2018-05-25T08:32:26.491Z,30048.00
2018-05-25T08:33:26.314Z,26976.00
2018-05-25T08:34:26.360Z,23680.00
2018-05-25T08:35:26.178Z,25536.00
2018-05-25T08:36:26.189Z,23872.00
2018-05-25T08:37:26.116Z,23936.00
2018-05-25T08:38:26.095Z,25152.00
2018-05-25T08:39:25.902Z,25824.00
2018-05-25T08:42:08.015Z,25888.00
2018-05-25T08:43:07.988Z,27488.00
2018-05-25T08:44:07.813Z,37088.00
2018-05-25T08:45:07.759Z,37280.00
2018-05-25T08:46:07.705Z,44160.00
2018-05-25T08:48:49.943Z,51520.00
2018-05-25T08:51:31.987Z,63264.00
2018-05-25T08:52:31.886Z,62976.00
2018-05-25T08:53:31.819Z,64512.00
2018-05-25T08:56:14.062Z,67744.00
2018-05-25T08:57:13.892Z,65728.00
2018-05-25T08:58:13.827Z,66464.00
2018-05-25T09:00:55.976Z,66496.00
2018-05-25T09:01:55.957Z,63936.00
2018-05-25T09:02:55.812Z,70528.00
2018-05-25T09:05:37.975Z,63808.00
2018-05-25T09:06:37.984Z,75616.00
2018-05-25T09:07:37.819Z,74976.00
2018-05-25T09:08:42.576Z,37984.00
2018-05-25T09:09:37.714Z,42048.00
2018-05-25T09:10:37.632Z,49632.00
2018-05-25T09:11:37.556Z,60672.00
2018-05-25T09:12:37.505Z,75104.00
2018-05-25T09:13:37.423Z,64096.00
2018-05-25T09:16:19.474Z,36000.00
2018-05-25T09:17:19.397Z,73632.00
2018-05-25T09:18:19.336Z,66528.00
2018-05-25T09:19:19.259Z,72256.00
2018-05-25T09:20:19.208Z,66624.00
2018-05-25T09:21:19.129Z,71584.00
2018-05-25T09:22:19.084Z,75776.00
2018-05-25T09:23:19.029Z,72800.00
2018-05-25T09:24:18.955Z,74176.00
2018-05-25T09:25:18.915Z,78208.00
2018-05-25T09:26:18.801Z,75616.00
2018-05-25T09:27:18.750Z,49792.00
2018-05-25T09:28:18.688Z,43328.00
2018-05-25T09:29:18.625Z,41536.00
2018-05-25T09:30:18.535Z,44064.00
2018-05-25T09:31:18.568Z,43840.00
2018-05-25T09:32:18.401Z,50016.00
2018-05-25T09:33:18.477Z,63136.00
2018-05-25T09:34:18.274Z,82272.00
2018-05-25T09:35:18.269Z,85152.00
2018-05-25T09:36:18.199Z,84256.00
2018-05-25T09:37:18.160Z,96832.00
2018-05-25T09:38:18.051Z,81888.00
2018-05-25T09:39:17.979Z,61952.00
2018-05-25T09:40:17.890Z,42912.00
2018-05-25T09:41:17.888Z,45216.00
2018-05-25T09:42:17.754Z,42464.00
2018-05-25T09:43:17.720Z,46112.00
2018-05-25T09:44:17.643Z,63200.00
2018-05-25T09:45:17.629Z,20416.00
2018-05-25T09:46:17.484Z,28512.00
2018-05-25T09:47:17.539Z,84064.00
2018-05-25T09:48:17.375Z,71424.00
2018-05-25T09:49:17.374Z,62240.00
2018-05-25T09:50:17.212Z,75616.00
2018-05-25T09:51:17.265Z,79104.00
2018-05-25T09:52:17.097Z,82528.00
2018-05-25T09:53:17.042Z,83584.00
2018-05-25T09:54:16.982Z,81056.00
2018-05-25T09:55:16.967Z,84800.00
2018-05-25T09:56:16.822Z,86016.00
2018-05-25T09:57:16.878Z,46016.00
2018-05-25T09:58:16.692Z,80160.00
2018-05-25T09:59:16.638Z,85280.00
2018-05-25T10:00:16.552Z,84160.00
2018-05-25T10:01:16.505Z,83296.00
2018-05-25T10:02:16.421Z,82048.00
2018-05-25T10:03:16.460Z,83872.00
2018-05-25T10:04:16.326Z,84640.00
2018-05-25T10:05:16.380Z,83744.00
2018-05-25T10:06:16.185Z,84192.00
2018-05-25T10:07:16.223Z,80256.00
2018-05-25T10:08:16.030Z,77984.00
2018-05-25T10:09:16.029Z,79520.00
2018-05-25T10:10:15.973Z,85408.00
2018-05-25T10:12:58.011Z,88704.00
2018-05-25T10:13:57.939Z,86304.00
2018-05-25T10:14:57.871Z,89632.00
2018-05-25T10:15:57.866Z,90080.00
2018-05-25T10:16:57.721Z,86112.00
2018-05-25T10:17:57.713Z,68192.00
2018-05-25T10:18:57.599Z,84352.00
2018-05-25T10:19:57.603Z,83104.00
2018-05-25T10:20:57.481Z,86624.00
2018-05-25T10:21:57.419Z,87136.00
2018-05-25T10:22:57.343Z,90016.00
2018-05-25T10:23:57.386Z,90016.00
2018-05-25T10:24:57.219Z,89984.00
2018-05-25T10:25:58.208Z,89440.00
2018-05-25T10:26:57.105Z,90560.00
2018-05-25T10:27:57.122Z,95424.00
2018-05-25T10:28:56.972Z,93536.00
2018-05-25T10:29:57.064Z,90240.00
2018-05-25T10:30:56.869Z,91200.00
2018-05-25T10:31:56.819Z,95072.00
2018-05-25T10:32:56.724Z,94496.00
2018-05-25T10:33:56.748Z,89312.00
2018-05-25T10:34:56.613Z,95232.00
2018-05-25T10:35:56.794Z,75232.00
2018-05-25T10:36:56.490Z,91680.00
2018-05-25T10:37:56.475Z,92512.00
2018-05-25T10:38:56.342Z,94656.00
2018-05-25T10:39:56.282Z,98368.00
2018-05-25T10:40:56.234Z,99488.00
2018-05-25T10:41:56.331Z,99392.00
2018-05-25T10:42:56.097Z,97824.00
2018-05-25T10:45:38.022Z,93824.00
2018-05-25T10:46:37.956Z,43744.00
2018-05-25T10:47:37.869Z,72064.00
2018-05-25T10:48:37.903Z,79040.00
2018-05-25T10:49:37.744Z,90016.00
2018-05-25T10:50:37.728Z,98880.00
2018-05-25T10:51:37.613Z,98912.00
2018-05-25T10:52:37.622Z,100384.00
2018-05-25T10:53:37.500Z,98464.00
2018-05-25T10:54:37.448Z,102016.00
2018-05-25T10:55:37.401Z,99328.00
2018-05-25T10:56:37.328Z,100800.00
2018-05-25T10:57:37.237Z,101632.00
2018-05-25T10:58:37.243Z,99200.00
2018-05-25T10:59:37.119Z,98528.00
2018-05-25T11:00:37.159Z,98944.00
2018-05-25T11:01:37.027Z,99072.00
2018-05-25T11:02:36.977Z,100800.00
2018-05-25T11:03:36.859Z,101664.00
2018-05-25T11:06:19.029Z,103872.00
2018-05-25T11:07:20.024Z,101728.00
2018-05-25T11:08:18.876Z,103872.00
2018-05-25T11:09:18.882Z,103936.00
2018-05-25T11:10:18.808Z,103872.00
2018-05-25T11:13:01.028Z,103040.00
2018-05-25T11:14:01.011Z,100320.00
2018-05-25T11:15:00.897Z,100256.00
2018-05-25T11:17:43.044Z,96224.00
2018-05-25T11:18:43.000Z,91488.00
2018-05-25T11:19:42.880Z,100704.00
2018-05-25T11:20:42.914Z,92288.00
2018-05-25T11:21:42.756Z,70144.00
2018-05-25T11:22:42.773Z,87200.00
2018-05-25T11:23:42.637Z,90464.00
2018-05-25T11:24:42.690Z,92192.00
2018-05-25T11:25:42.515Z,96992.00
2018-05-25T11:26:42.564Z,95520.00
2018-05-25T11:27:42.653Z,100864.00
2018-05-25T11:28:42.368Z,102432.00
2018-05-25T11:29:42.277Z,102176.00
2018-05-25T11:30:42.261Z,101792.00
2018-05-25T11:31:42.162Z,98368.00
2018-05-25T11:32:42.229Z,97600.00
2018-05-25T11:33:42.009Z,99840.00
2018-05-25T11:34:42.009Z,103136.00
2018-05-25T11:35:41.900Z,103968.00
2018-05-25T11:38:24.062Z,100256.00
2018-05-25T11:39:23.963Z,86784.00
2018-05-25T11:40:23.898Z,79808.00
2018-05-25T11:41:23.913Z,87424.00
2018-05-25T11:42:23.765Z,93696.00
2018-05-25T11:43:23.865Z,95104.00
2018-05-25T11:44:23.649Z,95008.00
2018-05-25T11:45:23.623Z,93216.00
2018-05-25T11:46:23.521Z,94272.00
2018-05-25T11:47:23.546Z,92064.00
2018-05-25T11:48:23.394Z,91776.00
2018-05-25T11:49:23.372Z,87584.00
2018-05-25T11:50:23.290Z,82080.00
2018-05-25T11:51:23.266Z,54976.00
2018-05-25T11:52:23.153Z,23648.00
2018-05-25T11:53:23.198Z,16228.00
2018-05-25T11:54:23.046Z,14492.00
2018-05-25T11:55:22.977Z,15496.00
2018-05-25T11:56:22.905Z,17888.00
2018-05-25T11:57:22.887Z,19520.00
2018-05-25T11:58:22.755Z,20544.00
2018-05-25T11:59:22.838Z,20064.00
2018-05-25T12:00:22.626Z,20992.00
2018-05-25T12:01:22.622Z,20832.00
2018-05-25T12:02:22.499Z,19840.00
2018-05-25T12:03:22.535Z,17728.00
2018-05-25T12:04:22.394Z,15068.00
2018-05-25T12:05:22.334Z,13048.00
2018-05-25T12:06:22.230Z,12632.00
2018-05-25T12:07:22.237Z,12108.00
2018-05-25T12:08:22.099Z,11828.00
2018-05-25T12:09:22.192Z,11772.00
2018-05-25T12:10:21.969Z,11736.00
2018-05-25T12:13:04.029Z,11256.00
2018-05-25T12:14:05.010Z,11100.00
2018-05-25T12:15:03.888Z,11252.00
2018-05-25T12:16:03.866Z,11192.00
2018-05-25T12:17:03.751Z,11408.00
2018-05-25T12:19:46.052Z,10400.00
2018-05-25T12:20:46.014Z,10656.00
2018-05-25T12:21:45.922Z,11100.00
2018-05-25T12:24:28.075Z,12240.00
2018-05-25T12:27:10.033Z,10496.00
2018-05-25T12:28:10.001Z,9712.00
2018-05-25T12:29:09.890Z,9128.00
2018-05-25T12:30:09.943Z,8664.00
2018-05-25T12:31:09.748Z,8440.00
2018-05-25T12:32:09.702Z,7836.00
2018-05-25T12:33:09.622Z,7204.00
2018-05-25T12:34:09.677Z,6812.00
2018-05-25T12:35:09.488Z,6636.00
2018-05-25T12:36:09.421Z,6508.00
2018-05-25T12:37:09.321Z,6456.00
2018-05-25T12:38:09.334Z,6592.00
2018-05-25T12:39:09.190Z,6460.00
2018-05-25T12:40:09.145Z,6288.00
2018-05-25T12:41:09.084Z,6264.00
2018-05-25T12:42:09.063Z,6432.00
2018-05-25T12:43:08.911Z,6580.00
2018-05-25T12:45:51.060Z,7888.00
2018-05-25T12:46:53.017Z,8940.00
2018-05-25T12:47:50.911Z,9856.00
2018-05-25T12:48:50.877Z,10644.00
2018-05-25T12:49:50.769Z,11140.00
2018-05-25T12:50:50.702Z,11388.00
2018-05-25T12:51:50.643Z,11476.00
2018-05-25T12:52:50.594Z,11868.00
2018-05-25T12:53:50.464Z,12332.00
2018-05-25T12:54:50.498Z,12276.00
2018-05-25T12:55:50.345Z,12764.00
2018-05-25T12:56:50.308Z,13876.00
2018-05-25T12:57:50.179Z,14808.00
2018-05-25T12:58:50.223Z,14476.00
2018-05-25T12:59:50.200Z,14392.00
2018-05-25T13:00:49.997Z,14104.00
2018-05-25T13:01:49.910Z,13684.00
2018-05-25T13:02:49.936Z,13292.00
2018-05-25T13:03:49.747Z,12804.00
2018-05-25T13:06:32.075Z,14336.00
2018-05-25T13:07:32.077Z,14748.00
2018-05-25T13:08:31.917Z,15072.00
2018-05-25T13:11:14.067Z,13884.00
2018-05-25T13:17:20.080Z,15036.00
2018-05-25T13:18:20.041Z,15224.00
2018-05-25T13:19:19.918Z,14832.00
2018-05-25T13:22:02.072Z,14492.00
2018-05-25T13:24:44.074Z,13336.00
2018-05-25T13:25:44.058Z,13068.00
2018-05-25T13:26:43.931Z,13300.00
2018-05-25T13:27:43.905Z,13436.00
2018-05-25T13:28:43.769Z,13028.00
2018-05-25T13:31:26.079Z,12980.00
2018-05-25T13:32:26.114Z,13380.00
2018-05-25T13:33:25.949Z,13260.00
2018-05-25T13:34:25.885Z,12912.00
2018-05-25T13:35:25.786Z,12640.00
2018-05-25T13:36:25.804Z,12464.00
2018-05-25T13:37:25.667Z,12496.00
2018-05-25T13:38:25.661Z,12440.00
2018-05-25T13:39:25.556Z,12380.00
2018-05-25T13:42:07.648Z,12736.00
2018-05-25T13:43:07.636Z,12860.00
2018-05-25T13:44:07.549Z,12964.00
2018-05-25T13:45:07.437Z,12136.00
2018-05-25T13:46:07.289Z,11084.00
2018-05-25T13:47:07.240Z,10012.00
2018-05-25T13:48:07.308Z,9668.00
2018-05-25T13:49:07.167Z,9580.00
2018-05-25T13:50:06.992Z,9876.00
2018-05-25T13:52:49.088Z,10700.00
2018-05-25T13:53:49.087Z,10544.00
2018-05-25T13:54:48.934Z,10016.00
2018-05-25T13:55:49.007Z,9264.00
2018-05-25T13:56:48.786Z,9080.00
2018-05-25T13:57:48.766Z,9116.00
2018-05-25T13:58:48.662Z,9308.00
2018-05-25T13:59:48.654Z,9976.00
2018-05-25T14:00:48.494Z,10956.00